Time;durP1;ratioP1;P1;durP2;ratioP2;P2;SDS_P1;SDS_P2;PMS_P1;PMS_P2;Temp;Humidity;BMP_temperature;BMP_pressure;BME280_temperature;BME280_humidity;BME280_pressure;Samples;Min_cycle;Max_cycle;Signal;HPM_P1;HPM_P2
2023/08/13 00:02:06;;;;;;;16.70;13.30;;;;;;;20.85;92.46;98447.81;5070295;28;20020;-79
2023/08/13 00:04:31;;;;;;;17.65;14.15;;;;;;;21.02;92.18;98478.97;5058685;28;20039;-79
2023/08/13 00:06:57;;;;;;;16.38;14.48;;;;;;;21.05;91.93;98463.88;5042352;28;20398;-80
2023/08/13 00:09:22;;;;;;;21.42;13.98;;;;;;;21.09;91.82;98473.91;5062120;28;20443;-80
2023/08/13 00:11:48;;;;;;;17.75;12.15;;;;;;;20.94;91.25;98426.81;5059716;28;20020;-79
2023/08/13 00:14:13;;;;;;;14.90;13.30;;;;;;;20.88;91.93;98439.81;5057919;28;20036;-79
2023/08/13 00:16:39;;;;;;;16.27;13.85;;;;;;;20.83;91.66;98441.84;5057187;28;20021;-79
2023/08/13 00:19:04;;;;;;;20.27;10.50;;;;;;;20.93;92.05;98469.03;5066074;28;20403;-81
2023/08/13 00:21:30;;;;;;;117.85;77.25;;;;;;;20.88;91.29;98449.94;5082482;28;20466;-81
2023/08/13 00:23:56;;;;;;;34.20;31.40;;;;;;;20.99;91.37;98470.53;5048437;28;20028;-81
2023/08/13 00:26:21;;;;;;;20.15;12.48;;;;;;;20.69;91.56;98447.31;5043901;28;20066;-81
2023/08/13 00:28:47;;;;;;;15.30;11.48;;;;;;;20.88;91.43;98478.16;5037884;28;20518;-79
2023/08/13 00:31:13;;;;;;;14.75;10.60;;;;;;;20.93;91.34;98474.50;5057983;28;20574;-79
2023/08/13 00:33:38;;;;;;;13.35;10.43;;;;;;;20.75;91.80;98472.66;5048915;28;20077;-80
2023/08/13 00:36:04;;;;;;;19.05;12.13;;;;;;;20.66;91.72;98465.16;5063469;28;20059;-80
2023/08/13 00:38:30;;;;;;;17.73;16.08;;;;;;;20.61;91.33;98461.69;5066704;28;20029;-81
2023/08/13 00:40:56;;;;;;;14.48;10.63;;;;;;;20.74;91.44;98476.50;5053890;28;20032;-82
2023/08/13 00:43:21;;;;;;;13.73;11.32;;;;;;;20.64;91.21;98455.63;5049786;28;20039;-79
2023/08/13 00:45:47;;;;;;;19.58;12.38;;;;;;;20.56;91.27;98457.13;5055156;28;20027;-79
2023/08/13 00:48:12;;;;;;;15.27;12.00;;;;;;;20.71;91.20;98477.09;5075292;28;20108;-81
2023/08/13 00:50:38;;;;;;;17.52;12.95;;;;;;;20.56;91.21;98470.03;5055327;28;20127;-80
2023/08/13 00:53:04;;;;;;;27.73;13.35;;;;;;;20.26;91.08;98418.56;5037076;28;20041;-81
2023/08/13 00:55:30;;;;;;;19.05;12.52;;;;;;;20.41;90.74;98446.47;5081943;28;20020;-79
2023/08/13 00:57:56;;;;;;;18.67;13.75;;;;;;;20.15;90.67;98415.19;5048334;28;20071;-80
2023/08/13 01:00:21;;;;;;;16.63;13.13;;;;;;;20.51;90.73;98473.63;5064031;28;20025;-79
2023/08/13 01:02:47;;;;;;;19.00;12.60;;;;;;;20.51;90.73;98481.06;5049130;28;20029;-79
2023/08/13 01:05:13;;;;;;;20.65;13.65;;;;;;;20.48;90.55;98479.72;5071046;28;20398;-82
2023/08/13 01:08:03;;;;;;;19.98;14.05;;;;;;;20.46;90.45;98481.16;5036890;28;20384;-80
2023/08/13 01:10:38;;;;;;;18.52;12.60;;;;;;;20.45;90.59;98480.31;5084004;28;20036;-80
2023/08/13 01:13:31;;;;;;;14.52;11.27;;;;;;;20.47;90.49;98494.50;5069185;28;20040;-79
2023/08/13 01:16:00;;;;;;;19.48;12.88;;;;;;;20.39;90.59;98476.06;5065879;28;20032;-79
2023/08/13 01:18:49;;;;;;;19.95;12.27;;;;;;;20.51;90.57;98484.56;5078140;28;20036;-79
2023/08/13 01:21:25;;;;;;;18.83;11.63;;;;;;;20.53;91.22;98492.50;5073628;28;20066;-80
2023/08/13 01:23:51;;;;;;;15.48;11.27;;;;;;;20.52;90.70;98491.69;5036654;28;20025;-80
2023/08/13 01:26:24;;;;;;;15.48;11.45;;;;;;;20.56;90.35;98487.22;5070614;28;20100;-80
2023/08/13 01:29:22;;;;;;;19.00;11.65;;;;;;;20.07;90.25;98413.13;5032555;28;20047;-80
2023/08/13 01:31:51;;;;;;;17.10;11.77;;;;;;;20.47;90.83;98494.50;5080044;28;20043;-79
2023/08/13 01:34:17;;;;;;;17.98;12.93;;;;;;;20.12;91.65;98470.47;5044541;28;20029;-79
2023/08/13 01:36:43;;;;;;;16.65;11.75;;;;;;;20.35;90.96;98494.16;5066759;28;20037;-79
2023/08/13 01:39:09;;;;;;;17.38;12.00;;;;;;;20.31;90.69;98478.66;5053576;28;20016;-79
2023/08/13 01:41:43;;;;;;;18.05;13.57;;;;;;;20.33;90.62;98471.78;5051293;28;20412;-79
2023/08/13 01:44:11;;;;;;;19.85;11.60;;;;;;;20.20;90.92;98472.53;5082646;28;20032;-79
2023/08/13 01:46:38;;;;;;;18.38;10.68;;;;;;;20.33;91.05;98492.84;5041848;28;20032;-79
2023/08/13 01:49:04;;;;;;;14.50;11.18;;;;;;;20.23;90.75;98485.66;5059332;28;20029;-78
2023/08/13 01:51:29;;;;;;;13.40;10.93;;;;;;;20.32;90.92;98492.06;5051506;28;20025;-79
2023/08/13 01:53:57;;;;;;;15.07;10.48;;;;;;;20.21;90.65;98468.69;5072191;28;20486;-79
2023/08/13 01:56:24;;;;;;;16.40;11.57;;;;;;;20.25;90.45;98474.41;5075374;28;20040;-79
2023/08/13 01:58:50;;;;;;;19.52;12.18;;;;;;;20.26;90.58;98482.31;5076993;28;20044;-79
2023/08/13 02:01:15;;;;;;;16.23;10.25;;;;;;;20.13;90.51;98455.69;5051081;28;20447;-79
2023/08/13 02:03:41;;;;;;;14.70;10.77;;;;;;;20.09;90.33;98438.28;5059152;28;20036;-79
2023/08/13 02:06:06;;;;;;;17.33;10.70;;;;;;;20.43;90.34;98488.03;5038910;28;20037;-79
2023/08/13 02:08:31;;;;;;;13.40;9.48;;;;;;;20.44;90.46;98484.16;5055975;28;20482;-80
2023/08/13 02:10:58;;;;;;;13.48;11.18;;;;;;;20.36;90.32;98471.19;5050688;28;20027;-79
2023/08/13 02:13:29;;;;;;;15.05;10.73;;;;;;;20.47;90.27;98489.03;5049507;28;20403;-79
2023/08/13 02:16:02;;;;;;;25.98;11.45;;;;;;;20.18;90.53;98450.16;5055680;28;20407;-79
2023/08/13 02:18:32;;;;;;;13.73;11.13;;;;;;;20.08;91.10;98455.78;5090116;28;20402;-79
2023/08/13 02:21:03;;;;;;;18.02;11.35;;;;;;;20.41;90.65;98495.72;5072151;28;20119;-79
2023/08/13 02:23:34;;;;;;;17.35;11.48;;;;;;;20.44;90.25;98484.16;5052789;28;20040;-79
2023/08/13 02:26:03;;;;;;;18.33;10.43;;;;;;;20.46;90.29;98484.69;5084274;28;20130;-79
2023/08/13 02:28:30;;;;;;;15.23;10.77;;;;;;;20.34;90.30;98462.47;5095653;28;20040;-79
2023/08/13 02:30:56;;;;;;;14.52;10.40;;;;;;;20.49;90.02;98486.03;5076279;28;20035;-79
2023/08/13 02:33:21;;;;;;;16.23;9.13;;;;;;;20.46;90.18;98495.63;5070730;28;20058;-79
2023/08/13 02:35:47;;;;;;;17.25;11.38;;;;;;;20.30;90.59;98477.88;5068309;28;20395;-79
2023/08/13 02:38:12;;;;;;;17.02;11.18;;;;;;;20.25;90.44;98480.69;5073740;28;20032;-79
2023/08/13 02:40:38;;;;;;;15.35;11.65;;;;;;;20.15;90.60;98480.81;5055919;28;20048;-79
2023/08/13 02:43:04;;;;;;;28.50;12.70;;;;;;;20.02;90.93;98469.84;5067192;28;20031;-79
2023/08/13 02:45:30;;;;;;;46.40;13.05;;;;;;;19.86;90.77;98464.63;5050036;28;20021;-79
2023/08/13 02:47:57;;;;;;;15.20;9.38;;;;;;;19.89;90.71;98482.34;5063348;28;20044;-79
2023/08/13 02:50:23;;;;;;;14.00;10.45;;;;;;;19.78;90.83;98481.69;5092567;28;20044;-79
2023/08/13 02:52:48;;;;;;;17.63;10.88;;;;;;;19.84;90.60;98490.63;5070466;28;20127;-79
2023/08/13 02:55:14;;;;;;;15.93;11.00;;;;;;;19.95;90.33;98498.38;5082765;28;20444;-79
2023/08/13 02:57:39;;;;;;;16.25;10.13;;;;;;;19.93;90.26;98488.84;5052365;28;20068;-79
2023/08/13 03:00:05;;;;;;;19.85;13.25;;;;;;;19.98;90.90;98494.22;5088872;28;20017;-79
2023/08/13 03:02:31;;;;;;;22.83;14.98;;;;;;;19.93;90.64;98473.25;5054690;28;20032;-79
2023/08/13 03:05:03;;;;;;;30.85;16.85;;;;;;;19.76;90.94;98461.25;5076788;28;20391;-78
2023/08/13 03:07:29;;;;;;;21.35;14.77;;;;;;;19.87;90.83;98476.38;5072720;28;20033;-79
2023/08/13 03:09:55;;;;;;;19.70;13.57;;;;;;;19.82;91.10;98473.72;5074811;28;20035;-79
2023/08/13 03:12:20;;;;;;;21.85;13.82;;;;;;;19.87;91.14;98487.31;5052338;28;20028;-79
2023/08/13 03:14:46;;;;;;;16.90;11.77;;;;;;;19.76;91.03;98461.25;5067267;28;20021;-79
2023/08/13 03:17:11;;;;;;;18.98;12.32;;;;;;;19.81;90.92;98459.22;5055531;28;20376;-78
2023/08/13 03:19:38;;;;;;;16.70;11.20;;;;;;;19.99;90.86;98487.66;5074833;28;20046;-79
2023/08/13 03:22:04;;;;;;;15.45;11.25;;;;;;;19.99;90.73;98490.41;5068961;28;20546;-79
2023/08/13 03:24:29;;;;;;;16.83;12.35;;;;;;;19.93;90.89;98473.25;5068651;28;20473;-79
2023/08/13 03:26:56;;;;;;;12.27;9.80;;;;;;;19.98;90.79;98483.28;5072393;28;20040;-78
2023/08/13 03:29:22;;;;;;;17.77;12.40;;;;;;;19.93;90.71;98484.19;5067283;28;20040;-78
2023/08/13 03:31:50;;;;;;;15.50;11.82;;;;;;;19.89;91.43;98487.81;5061272;28;20040;-79
2023/08/13 03:34:26;;;;;;;20.40;13.30;;;;;;;19.67;91.90;98465.75;5059785;28;20031;-79
2023/08/13 03:36:52;;;;;;;18.27;11.10;;;;;;;19.65;91.98;98470.72;5040536;28;20037;-79
2023/08/13 03:39:18;;;;;;;19.42;13.35;;;;;;;19.66;91.46;98464.13;5061044;28;20490;-78
2023/08/13 03:41:43;;;;;;;17.10;13.15;;;;;;;19.81;91.15;98477.56;5057688;28;20575;-79
2023/08/13 03:44:11;;;;;;;17.60;11.60;;;;;;;19.67;91.01;98441.97;5069408;28;20382;-79
2023/08/13 03:46:36;;;;;;;19.77;10.95;;;;;;;19.82;91.09;98476.44;5057741;28;20033;-79
2023/08/13 03:49:02;;;;;;;14.20;10.63;;;;;;;19.68;91.06;98461.91;5068140;28;20118;-79
2023/08/13 03:51:28;;;;;;;17.60;11.45;;;;;;;19.74;91.53;98475.19;5075706;28;20075;-79
2023/08/13 03:53:54;;;;;;;20.88;13.18;;;;;;;19.51;92.21;98450.69;5040139;28;20563;-79
2023/08/13 03:56:20;;;;;;;19.85;11.73;;;;;;;19.66;92.01;98473.13;5051175;28;20041;-79
2023/08/13 03:58:45;;;;;;;17.90;11.52;;;;;;;19.60;92.04;98476.25;5066485;28;20472;-79
2023/08/13 04:01:14;;;;;;;15.40;10.90;;;;;;;19.53;91.64;98456.69;5075059;28;20169;-79
2023/08/13 04:03:42;;;;;;;20.40;12.07;;;;;;;19.69;91.31;98483.50;5075705;28;20028;-79
2023/08/13 04:06:10;;;;;;;19.38;11.07;;;;;;;19.60;91.28;98478.97;5050852;28;20043;-79
2023/08/13 04:08:35;;;;;;;16.70;12.38;;;;;;;19.65;91.74;98492.56;5071438;28;20020;-78
2023/08/13 04:11:01;;;;;;;17.15;12.40;;;;;;;19.62;91.30;98487.69;5066586;28;20131;-79
2023/08/13 04:13:30;;;;;;;20.83;12.02;;;;;;;19.68;92.08;98508.34;5046672;28;20040;-79
2023/08/13 04:15:56;;;;;;;17.40;10.65;;;;;;;19.13;92.19;98415.16;5049955;28;20040;-78
2023/08/13 04:18:22;;;;;;;25.98;17.85;;;;;;;19.19;92.15;98422.16;5041225;28;20042;-79
2023/08/13 04:20:49;;;;;;;23.55;16.40;;;;;;;19.67;92.24;98495.81;5058581;28;20036;-79
2023/08/13 04:23:16;;;;;;;22.77;16.02;;;;;;;19.64;91.45;98474.53;5073641;28;20031;-79
2023/08/13 04:25:41;;;;;;;24.00;16.35;;;;;;;19.91;92.02;98512.94;5049190;28;20120;-79
2023/08/13 04:28:07;;;;;;;23.38;16.13;;;;;;;19.90;91.74;98511.31;5067642;28;20096;-79
2023/08/13 04:30:37;;;;;;;23.23;16.13;;;;;;;19.93;92.38;98499.78;5058504;28;20040;-79
2023/08/13 04:33:06;;;;;;;24.05;16.38;;;;;;;19.76;92.04;98466.72;5061602;28;20032;-79
2023/08/13 04:35:36;;;;;;;22.25;15.93;;;;;;;19.91;91.94;98469.19;5066692;28;20503;-79
2023/08/13 04:38:03;;;;;;;26.95;17.08;;;;;;;20.17;91.91;98505.94;5070881;28;20051;-79
2023/08/13 04:40:32;;;;;;;25.60;15.88;;;;;;;20.04;92.04;98467.63;5037799;28;20041;-79
2023/08/13 04:43:02;;;;;;;28.88;20.42;;;;;;;20.13;91.94;98476.75;5050267;28;20390;-78
2023/08/13 04:45:27;;;;;;;32.75;18.30;;;;;;;20.17;92.15;98484.06;5060077;28;20039;-79
2023/08/13 04:47:53;;;;;;;22.02;14.95;;;;;;;20.27;92.75;98491.31;5046668;28;20044;-80
2023/08/13 04:50:18;;;;;;;22.15;16.25;;;;;;;20.08;92.48;98458.53;5061907;28;20086;-78
2023/08/13 04:52:48;;;;;;;27.27;16.48;;;;;;;20.24;92.31;98479.06;5053006;28;20115;-79
2023/08/13 04:55:17;;;;;;;24.80;15.85;;;;;;;20.19;92.59;98459.97;5053575;28;20562;-78
2023/08/13 04:57:44;;;;;;;25.63;16.33;;;;;;;20.18;92.72;98447.41;5063822;28;20036;-78
2023/08/13 05:00:16;;;;;;;20.55;10.00;;;;;;;20.47;92.58;98494.50;5044014;28;20075;-80
2023/08/13 05:02:44;;;;;;;15.50;10.70;;;;;;;20.54;92.64;98505.88;5051403;28;20028;-79
2023/08/13 05:05:10;;;;;;;17.05;10.10;;;;;;;20.47;92.97;98478.09;5078695;28;20392;-79
2023/08/13 05:07:36;;;;;;;14.38;9.70;;;;;;;20.46;92.84;98498.38;5051764;28;20495;-79
2023/08/13 05:10:04;;;;;;;17.13;10.45;;;;;;;20.54;92.66;98500.41;5062860;28;20035;-79
2023/08/13 05:12:30;;;;;;;21.88;14.95;;;;;;;20.55;93.05;98507.50;5062959;28;20127;-79
2023/08/13 05:14:56;;;;;;;25.20;15.68;;;;;;;20.43;92.76;98477.09;5059526;28;20021;-79
2023/08/13 05:17:22;;;;;;;20.00;15.27;;;;;;;20.67;92.56;98510.59;5063841;28;20043;-78
2023/08/13 05:19:49;;;;;;;22.23;15.10;;;;;;;20.56;92.80;98498.16;5051950;28;20079;-79
2023/08/13 05:22:16;;;;;;;23.70;16.33;;;;;;;20.63;92.66;98503.28;5046709;28;20036;-79
2023/08/13 05:24:41;;;;;;;24.30;15.23;;;;;;;20.66;92.34;98500.72;5042594;28;20485;-79
2023/08/13 05:27:09;;;;;;;25.70;15.82;;;;;;;20.75;92.50;98497.31;5046983;28;20040;-80
2023/08/13 05:29:35;;;;;;;21.88;16.65;;;;;;;20.85;92.44;98516.25;5063331;28;20363;-79
2023/08/13 05:32:02;;;;;;;26.33;16.75;;;;;;;20.71;92.58;98493.53;5054976;28;20028;-79
2023/08/13 05:34:29;;;;;;;20.15;15.98;;;;;;;20.74;92.60;98498.41;5051967;28;20055;-79
2023/08/13 05:36:55;;;;;;;17.42;13.75;;;;;;;20.92;92.10;98511.19;5046590;28;20406;-79
2023/08/13 05:39:22;;;;;;;23.10;13.77;;;;;;;20.94;92.00;98498.00;5041678;28;20108;-79
2023/08/13 05:41:47;;;;;;;20.65;14.23;;;;;;;20.93;92.22;98491.75;5046292;28;20555;-79
2023/08/13 05:44:13;;;;;;;18.17;13.50;;;;;;;20.98;92.34;98504.53;5044275;28;20025;-79
2023/08/13 05:46:38;;;;;;;21.95;13.63;;;;;;;20.99;92.22;98492.44;5065757;28;20422;-79
2023/08/13 05:49:04;;;;;;;18.67;12.90;;;;;;;21.09;91.59;98500.50;5070512;28;20016;-79
2023/08/13 05:51:30;;;;;;;19.40;13.00;;;;;;;21.05;91.72;98488.53;5069935;28;20038;-79
2023/08/13 05:53:58;;;;;;;18.10;12.93;;;;;;;21.01;91.43;98481.97;5068079;28;20044;-79
2023/08/13 05:56:27;;;;;;;16.65;12.43;;;;;;;21.10;91.61;98481.00;5070759;28;20090;-79
2023/08/13 05:58:52;;;;;;;17.25;10.73;;;;;;;21.00;91.59;98467.50;5074789;28;20028;-79
2023/08/13 06:01:18;;;;;;;14.90;9.10;;;;;;;21.12;91.37;98494.41;5052836;28;20024;-79
2023/08/13 06:03:44;;;;;;;16.15;9.00;;;;;;;21.18;91.69;98499.47;5046926;28;20040;-79
2023/08/13 06:06:12;;;;;;;12.05;8.23;;;;;;;21.26;91.38;98493.25;5057538;28;20054;-80
2023/08/13 06:08:38;;;;;;;11.10;8.13;;;;;;;21.32;91.39;98494.78;5091255;28;20088;-79
2023/08/13 06:11:03;;;;;;;18.13;11.68;;;;;;;21.42;91.33;98512.94;5086269;28;20055;-79
2023/08/13 06:13:29;;;;;;;16.88;11.80;;;;;;;21.47;90.82;98512.81;5065028;28;20025;-79
2023/08/13 06:15:54;;;;;;;14.77;10.88;;;;;;;21.53;90.54;98511.59;5068678;28;20091;-78
2023/08/13 06:18:24;;;;;;;15.52;10.68;;;;;;;21.49;90.34;98505.13;5086200;28;20028;-79
2023/08/13 06:20:49;;;;;;;13.70;10.00;;;;;;;21.22;90.01;98450.34;5054149;28;20075;-78
2023/08/13 06:23:14;;;;;;;14.98;9.10;;;;;;;21.50;89.90;98494.94;5044671;28;20032;-78
2023/08/13 06:25:40;;;;;;;18.08;8.95;;;;;;;21.58;90.30;98508.75;5043343;28;20033;-79
2023/08/13 06:28:05;;;;;;;15.73;8.18;;;;;;;21.60;89.68;98501.03;5059934;28;20036;-79
2023/08/13 06:30:31;;;;;;;13.25;8.52;;;;;;;21.62;89.64;98498.78;5068322;28;20025;-78
2023/08/13 06:32:56;;;;;;;13.25;8.85;;;;;;;21.65;89.31;98498.16;5089356;28;20469;-79
2023/08/13 06:35:22;;;;;;;12.27;8.45;;;;;;;21.68;89.06;98508.50;5051498;28;20040;-79
2023/08/13 06:37:47;;;;;;;10.88;7.88;;;;;;;21.78;88.96;98512.94;5064353;28;20079;-79
2023/08/13 06:40:12;;;;;;;13.13;8.73;;;;;;;21.76;89.01;98515.19;5087925;28;20040;-79
2023/08/13 06:42:38;;;;;;;13.60;8.50;;;;;;;21.69;89.00;98503.84;5073072;28;20111;-78
2023/08/13 06:45:04;;;;;;;12.32;8.02;;;;;;;21.66;88.38;98494.28;5067790;28;20062;-79
2023/08/13 06:47:30;;;;;;;11.60;8.45;;;;;;;21.69;88.54;98507.41;5064371;28;20017;-79
2023/08/13 06:49:55;;;;;;;16.83;10.05;;;;;;;21.74;88.42;98501.81;5068232;28;20033;-78
2023/08/13 06:52:21;;;;;;;14.57;8.10;;;;;;;21.52;88.20;98465.31;5073522;28;20028;-79
2023/08/13 06:54:46;;;;;;;13.80;10.55;;;;;;;21.71;88.21;98502.41;5083509;28;20035;-79
2023/08/13 06:57:11;;;;;;;13.38;9.90;;;;;;;21.80;88.32;98519.75;5063607;28;20025;-79
2023/08/13 06:59:37;;;;;;;15.50;10.90;;;;;;;21.84;88.35;98529.00;5066853;28;20049;-79
2023/08/13 07:02:04;;;;;;;13.85;10.32;;;;;;;21.83;88.03;98530.09;5083867;28;20111;-79
2023/08/13 07:04:30;;;;;;;20.63;11.27;;;;;;;21.79;87.83;98504.44;5066658;28;20039;-78
2023/08/13 07:06:56;;;;;;;14.60;11.00;;;;;;;21.97;87.65;98528.16;5061837;28;20033;-79
2023/08/13 07:09:22;;;;;;;13.30;10.73;;;;;;;21.92;87.10;98509.06;5055558;28;20108;-79
2023/08/13 07:11:47;;;;;;;14.55;10.10;;;;;;;22.02;86.92;98497.06;5083466;28;20024;-79
2023/08/13 07:14:12;;;;;;;11.95;9.65;;;;;;;22.31;86.63;98526.81;5066265;28;20383;-79
2023/08/13 07:16:38;;;;;;;12.25;9.00;;;;;;;22.18;86.21;98533.16;5082109;28;20382;-78
2023/08/13 07:19:03;;;;;;;11.75;8.75;;;;;;;22.13;85.73;98508.56;5068334;28;20123;-79
2023/08/13 07:21:29;;;;;;;11.43;8.35;;;;;;;22.28;85.38;98532.91;5072604;28;20020;-79
2023/08/13 07:23:54;;;;;;;10.10;8.15;;;;;;;22.35;84.92;98533.28;5065981;28;20043;-78
2023/08/13 07:26:19;;;;;;;9.98;7.50;;;;;;;22.45;85.18;98522.84;5046243;28;20123;-79
2023/08/13 07:28:45;;;;;;;9.27;7.70;;;;;;;22.57;84.69;98530.50;5069134;28;20041;-79
2023/08/13 07:31:10;;;;;;;8.02;7.28;;;;;;;22.44;84.28;98512.19;5072844;28;20095;-79
2023/08/13 07:33:36;;;;;;;10.80;7.75;;;;;;;22.40;84.19;98516.69;5049556;28;20075;-79
2023/08/13 07:36:03;;;;;;;1999.90;999.90;;;;;;;22.64;83.88;98541.88;5045603;28;20029;-79
2023/08/13 07:38:28;;;;;;;520.72;123.03;;;;;;;22.58;83.91;98537.63;5088973;28;20028;-79
2023/08/13 07:40:56;;;;;;;10.98;8.77;;;;;;;22.66;83.56;98531.44;5059738;28;20458;-80
2023/08/13 07:43:22;;;;;;;1.02;1.02;;;;;;;22.72;83.31;98526.59;5067418;28;20040;-79
2023/08/13 07:45:47;;;;;;;1.13;1.13;;;;;;;22.83;83.04;98531.50;5055519;28;20512;-79
2023/08/13 07:48:13;;;;;;;0.85;0.85;;;;;;;22.93;82.36;98523.00;5065591;28;20068;-79
2023/08/13 07:50:39;;;;;;;0.50;0.50;;;;;;;22.98;82.48;98528.34;5062093;28;20036;-79
2023/08/13 07:53:05;;;;;;;1.15;1.15;;;;;;;23.17;82.38;98534.41;5067568;28;20032;-79
2023/08/13 07:55:30;;;;;;;0.60;0.60;;;;;;;23.27;82.20;98512.13;5071377;28;20494;-79
2023/08/13 07:57:56;;;;;;;0.40;0.40;;;;;;;23.42;81.20;98532.06;5058879;28;20043;-79
2023/08/13 08:00:21;;;;;;;0.50;0.50;;;;;;;23.47;80.68;98537.44;5054544;28;20033;-79
2023/08/13 08:02:46;;;;;;;0.50;0.50;;;;;;;23.44;80.47;98518.81;5074457;28;20043;-78
2023/08/13 08:05:12;;;;;;;0.50;0.50;;;;;;;23.62;79.94;98517.75;5076499;28;20020;-79
2023/08/13 08:07:37;;;;;;;0.40;0.40;;;;;;;23.49;79.23;98494.75;5051631;28;20043;-79
2023/08/13 08:10:03;;;;;;;0.40;0.40;;;;;;;23.58;79.15;98500.25;5061400;28;20471;-80
2023/08/13 08:12:29;;;;;;;0.40;0.40;;;;;;;23.89;78.21;98509.19;5065569;28;20122;-80
2023/08/13 08:14:54;;;;;;;0.70;0.70;;;;;;;24.14;78.13;98530.41;5061408;28;20056;-78
2023/08/13 08:17:20;;;;;;;0.40;0.40;;;;;;;24.00;77.85;98513.22;5051081;28;20037;-79
2023/08/13 08:19:48;;;;;;;0.50;0.50;;;;;;;24.05;77.77;98511.13;5070409;28;20102;-80
2023/08/13 08:22:14;;;;;;;0.45;0.45;;;;;;;24.16;77.53;98517.13;5051477;28;20134;-79
2023/08/13 08:24:39;;;;;;;0.40;0.40;;;;;;;23.98;77.55;98515.50;5061431;28;20620;-79
2023/08/13 08:27:07;;;;;;;0.40;0.40;;;;;;;24.17;76.79;98513.25;5074521;28;20094;-79
2023/08/13 08:29:33;;;;;;;0.40;0.40;;;;;;;24.33;76.86;98508.03;5074871;28;20046;-80
2023/08/13 08:31:58;;;;;;;0.75;0.75;;;;;;;24.44;76.22;98507.38;5074941;28;20040;-79
2023/08/13 08:34:24;;;;;;;0.30;0.30;;;;;;;24.39;75.58;98510.28;5072167;28;20055;-80
2023/08/13 08:36:49;;;;;;;0.40;0.40;;;;;;;24.06;75.58;98517.47;5065038;28;20116;-79
2023/08/13 08:39:14;;;;;;;0.32;0.32;;;;;;;23.97;76.44;98508.34;5078003;28;20028;-79
2023/08/13 08:41:47;;;;;;;0.40;0.40;;;;;;;23.92;76.57;98511.28;5065379;28;20120;-79
2023/08/13 08:44:22;;;;;;;0.40;0.40;;;;;;;24.13;75.23;98528.00;5066772;28;20043;-78
2023/08/13 08:46:49;;;;;;;0.80;0.80;;;;;;;24.21;76.59;98533.47;5071210;28;20089;-80
2023/08/13 08:49:18;;;;;;;5.55;5.03;;;;;;;24.36;76.07;98533.00;5073741;28;20027;-80
2023/08/13 08:51:45;;;;;;;8.82;8.10;;;;;;;24.41;76.07;98490.72;5060605;28;20528;-80
2023/08/13 08:54:10;;;;;;;1.02;1.02;;;;;;;24.43;75.45;98478.25;5068303;28;20021;-79
2023/08/13 08:56:35;;;;;;;7.53;6.22;;;;;;;24.48;75.00;98524.06;5065210;28;20035;-79
2023/08/13 08:59:01;;;;;;;7.40;6.60;;;;;;;24.48;75.13;98513.84;5060643;28;20483;-79
2023/08/13 09:01:26;;;;;;;17.67;16.45;;;;;;;24.62;75.08;98506.19;5085225;28;20162;-80
2023/08/13 09:03:52;;;;;;;287.52;198.63;;;;;;;24.65;74.70;98508.31;5075965;28;20403;-80
2023/08/13 09:06:17;;;;;;;9.05;8.30;;;;;;;24.55;74.10;98492.13;5056633;28;20036;-80
2023/08/13 09:08:42;;;;;;;5.07;4.57;;;;;;;24.45;74.60;98491.66;5056607;28;20173;-79
2023/08/13 09:11:09;;;;;;;5.10;4.70;;;;;;;24.63;74.34;98509.75;5051010;28;20028;-79
2023/08/13 09:13:34;;;;;;;5.50;4.65;;;;;;;24.55;74.21;98514.16;5063885;28;20028;-79
2023/08/13 09:16:00;;;;;;;6.85;5.32;;;;;;;24.52;74.65;98506.56;5064166;28;20044;-79
2023/08/13 09:18:25;;;;;;;5.82;4.80;;;;;;;24.37;74.31;98482.28;5053468;28;20025;-79
2023/08/13 09:20:50;;;;;;;5.03;4.63;;;;;;;24.28;74.52;98498.00;5065916;28;20039;-79
2023/08/13 09:23:23;;;;;;;7.25;5.03;;;;;;;24.39;74.52;98488.25;5081135;28;20690;-79
2023/08/13 09:25:55;;;;;;;3.90;3.60;;;;;;;24.74;74.59;98511.84;5076854;28;20118;-79
2023/08/13 09:28:21;;;;;;;5.05;4.50;;;;;;;24.79;73.27;98496.28;5065601;28;20456;-79
2023/08/13 09:30:47;;;;;;;5.65;4.60;;;;;;;24.62;72.89;98489.66;5084931;28;20024;-79
2023/08/13 09:33:16;;;;;;;5.80;4.55;;;;;;;24.81;72.64;98502.31;5088958;28;20067;-79
2023/08/13 09:35:44;;;;;;;5.07;3.88;;;;;;;24.83;72.19;98508.28;5069801;28;20135;-79
2023/08/13 09:38:09;;;;;;;5.93;4.68;;;;;;;24.83;71.25;98491.75;5070829;28;20040;-79
2023/08/13 09:40:35;;;;;;;6.03;4.25;;;;;;;25.08;71.44;98504.63;5073001;28;20020;-79
2023/08/13 09:43:06;;;;;;;5.45;4.70;;;;;;;25.24;72.10;98505.66;5050224;28;20037;-78
2023/08/13 09:45:32;;;;;;;6.10;4.20;;;;;;;25.13;71.37;98496.16;5055267;28;20036;-79
2023/08/13 09:48:01;;;;;;;4.72;4.32;;;;;;;24.99;71.80;98463.31;5064394;28;20157;-80
2023/08/13 09:50:28;;;;;;;5.28;4.50;;;;;;;25.22;71.22;98480.38;5064508;28;20037;-80
2023/08/13 09:52:56;;;;;;;5.60;4.25;;;;;;;25.03;70.79;98471.72;5073354;28;20032;-80
2023/08/13 09:55:23;;;;;;;4.63;4.07;;;;;;;25.23;70.44;98493.00;5059726;28;20056;-80
2023/08/13 09:57:50;;;;;;;4.40;4.00;;;;;;;25.45;70.45;98495.53;5060236;28;20027;-79
2023/08/13 10:00:16;;;;;;;4.65;4.15;;;;;;;25.34;70.33;98491.50;5055679;28;20033;-80
2023/08/13 10:02:42;;;;;;;7.50;4.30;;;;;;;25.08;69.35;98488.88;5069032;28;20059;-80
2023/08/13 10:05:08;;;;;;;6.78;4.65;;;;;;;24.91;69.32;98477.94;5072325;28;20027;-80
2023/08/13 10:07:36;;;;;;;4.70;4.30;;;;;;;24.98;69.70;98474.66;5090325;28;20474;-80
2023/08/13 10:10:02;;;;;;;186.38;93.78;;;;;;;25.21;70.43;98487.03;5062153;28;20052;-79
2023/08/13 10:12:29;;;;;;;212.75;24.30;;;;;;;25.27;70.61;98486.53;5068104;28;20029;-80
2023/08/13 10:14:55;;;;;;;21.42;2.13;;;;;;;25.31;70.25;98486.66;5058438;28;20059;-80
2023/08/13 10:17:23;;;;;;;1.60;1.50;;;;;;;25.38;69.55;98476.72;5049000;28;20393;-80
2023/08/13 10:19:50;;;;;;;134.25;30.60;;;;;;;25.46;68.68;98477.84;5062148;28;20115;-80
2023/08/13 10:22:24;;;;;;;5.90;4.15;;;;;;;25.12;69.35;98455.94;5050296;28;20032;-80
2023/08/13 10:24:49;;;;;;;106.95;13.55;;;;;;;25.24;69.80;98484.44;5088358;28;20581;-79
2023/08/13 10:27:14;;;;;;;5.47;4.75;;;;;;;25.38;69.32;98476.72;5067377;28;20034;-80
2023/08/13 10:29:43;;;;;;;5.25;4.82;;;;;;;25.44;69.52;98476.56;5061796;28;20057;-80
2023/08/13 10:32:13;;;;;;;15.30;4.63;;;;;;;25.43;68.51;98467.44;5061487;28;20028;-80
2023/08/13 10:34:39;;;;;;;5.50;3.92;;;;;;;25.48;68.75;98474.75;5072560;28;20039;-81
2023/08/13 10:37:12;;;;;;;4.68;4.05;;;;;;;25.71;69.78;98470.50;5071608;28;20020;-81
2023/08/13 10:39:40;;;;;;;4.40;3.70;;;;;;;25.83;68.31;98441.03;5064966;28;20040;-78
2023/08/13 10:42:33;;;;;;;5.57;3.63;;;;;;;26.26;65.71;98467.44;5089868;28;20031;-78
2023/08/13 10:45:03;;;;;;;4.05;3.63;;;;;;;26.41;65.91;98469.59;5066952;28;20041;-77
2023/08/13 10:47:50;;;;;;;5.20;3.80;;;;;;;26.53;65.62;98461.31;5057212;28;20101;-79
2023/08/13 10:50:25;;;;;;;4.10;3.63;;;;;;;26.61;64.42;98457.66;5062133;28;20117;-79
2023/08/13 10:53:01;;;;;;;8.73;4.40;;;;;;;26.61;65.39;98441.06;5071240;28;20028;-78
2023/08/13 10:55:27;;;;;;;;;;;;;;;26.46;64.61;98455.56;5070188;28;20042;-78
2023/08/13 10:57:53;;;;;;;4.47;4.05;;;;;;;26.49;64.72;98449.34;5068632;28;19908;-80
2023/08/13 11:00:23;;;;;;;48.83;29.83;;;;;;;26.53;63.73;98433.69;5049378;28;20132;-78
2023/08/13 11:03:00;;;;;;;4.63;3.95;;;;;;;26.90;64.34;98443.66;5090732;28;20089;-78
2023/08/13 11:05:26;;;;;;;4.32;3.92;;;;;;;27.24;63.49;98443.19;5064213;28;20036;-79
2023/08/13 11:07:51;;;;;;;4.95;3.83;;;;;;;27.36;63.16;98423.81;5068299;28;20463;-79
2023/08/13 11:10:19;;;;;;;4.25;3.70;;;;;;;27.50;62.85;98450.31;5077473;28;20029;-78
2023/08/13 11:12:45;;;;;;;4.43;3.60;;;;;;;27.48;61.92;98441.56;5050667;28;20021;-79
2023/08/13 11:15:11;;;;;;;4.10;3.70;;;;;;;27.66;62.57;98442.91;5041399;28;20033;-78
2023/08/13 11:17:36;;;;;;;4.85;4.25;;;;;;;27.77;62.03;98402.53;5055405;28;20093;-79
2023/08/13 11:20:05;;;;;;;3.85;3.25;;;;;;;27.86;61.44;98405.94;5048318;28;20106;-79
2023/08/13 11:22:31;;;;;;;3.45;3.10;;;;;;;27.77;58.72;98438.53;5058554;28;20368;-77